createdAt,value
2018-07-24T00:00:54.425Z,975.32
2018-07-24T00:01:54.421Z,975.72
2018-07-24T00:02:54.466Z,975.34
2018-07-24T00:03:54.408Z,975.65
2018-07-24T00:04:54.438Z,975.58
2018-07-24T00:05:54.442Z,975.62
2018-07-24T00:06:54.422Z,975.72
2018-07-24T00:07:54.437Z,975.59
2018-07-24T00:08:54.408Z,975.78
2018-07-24T00:09:54.429Z,975.77
2018-07-24T00:10:54.429Z,975.7
2018-07-24T00:11:54.500Z,975.72
2018-07-24T00:14:14.264Z,975.72
2018-07-24T00:15:14.241Z,976.01
2018-07-24T00:16:14.274Z,976.1
2018-07-24T00:17:14.254Z,976.11
2018-07-24T00:18:14.236Z,976.32
2018-07-24T00:19:14.226Z,976
2018-07-24T00:20:14.218Z,976.38
2018-07-24T00:21:14.217Z,976.08
2018-07-24T00:22:14.221Z,976.05
2018-07-24T00:23:14.257Z,976.37
2018-07-24T00:24:14.265Z,975.88
2018-07-24T00:25:14.227Z,976.17
2018-07-24T00:26:14.258Z,976.08
2018-07-24T00:27:14.265Z,976.26
2018-07-24T00:28:14.273Z,976.49
2018-07-24T00:29:14.271Z,976.39
2018-07-24T00:30:14.287Z,976.37
2018-07-24T00:31:14.251Z,976.48
2018-07-24T00:32:14.348Z,976.09
2018-07-24T00:33:14.278Z,976.32
2018-07-24T00:34:14.264Z,976.85
2018-07-24T00:35:14.254Z,976.44
2018-07-24T00:36:14.245Z,976.29
2018-07-24T00:37:14.245Z,976.57
2018-07-24T00:38:14.273Z,976.41
2018-07-24T00:39:14.303Z,976.59
2018-07-24T00:40:14.284Z,976.5
2018-07-24T00:41:14.269Z,976.66
2018-07-24T00:42:14.271Z,977.07
2018-07-24T00:43:14.255Z,976.74
2018-07-24T00:44:14.292Z,976.85
2018-07-24T00:45:14.272Z,976.65
2018-07-24T00:46:14.287Z,976.82
2018-07-24T00:47:14.306Z,976.63
2018-07-24T00:48:14.260Z,976.44
2018-07-24T00:49:14.304Z,976.78
2018-07-24T00:50:14.287Z,976.61
2018-07-24T00:51:14.295Z,976.89
2018-07-24T00:52:14.262Z,976.85
2018-07-24T00:53:14.332Z,976.89
2018-07-24T00:54:14.404Z,976.97
2018-07-24T00:55:14.360Z,976.85
2018-07-24T00:56:14.306Z,977
2018-07-24T00:57:14.277Z,977.16
2018-07-24T00:58:14.292Z,977.04
2018-07-24T00:59:14.291Z,976.98
2018-07-24T01:00:14.358Z,977.29
2018-07-24T01:01:14.336Z,977.21
2018-07-24T01:02:14.615Z,976.97
2018-07-24T01:03:14.320Z,977.13
2018-07-24T01:04:14.315Z,977.25
2018-07-24T01:05:14.327Z,977.14
2018-07-24T01:06:14.335Z,977.13
2018-07-24T01:07:14.297Z,977.33
2018-07-24T01:08:14.311Z,977.35
2018-07-24T01:09:14.331Z,977.38
2018-07-24T01:10:14.339Z,977.6
2018-07-24T01:11:14.311Z,977.46
2018-07-24T01:12:14.243Z,977.51
2018-07-24T01:13:14.249Z,977.36
2018-07-24T01:14:14.310Z,977.45
2018-07-24T01:15:14.267Z,977.5
2018-07-24T01:16:14.284Z,977.61
2018-07-24T01:17:14.304Z,977.37
2018-07-24T01:18:14.268Z,977.57
2018-07-24T01:19:14.295Z,977.57
2018-07-24T01:20:14.310Z,977.76
2018-07-24T01:21:14.274Z,977.56
2018-07-24T01:22:14.273Z,977.64
2018-07-24T01:23:14.270Z,977.76
2018-07-24T01:24:14.260Z,977.62
2018-07-24T01:25:14.264Z,977.75
2018-07-24T01:26:14.629Z,977.91
2018-07-24T01:27:14.274Z,977.95
2018-07-24T01:28:14.315Z,977.75
2018-07-24T01:29:14.319Z,977.71
2018-07-24T01:30:14.282Z,977.68
2018-07-24T01:31:14.280Z,977.97
2018-07-24T01:32:14.327Z,978.1
2018-07-24T01:33:14.312Z,978.16
2018-07-24T01:34:14.318Z,978.04
2018-07-24T01:35:14.316Z,977.99
2018-07-24T01:36:15.269Z,978.28
2018-07-24T01:37:14.377Z,977.76
2018-07-24T01:38:14.612Z,978.05
2018-07-24T01:39:14.348Z,978.4
2018-07-24T01:40:14.349Z,978.11
2018-07-24T01:41:14.358Z,978.09
2018-07-24T01:42:14.284Z,978.28
2018-07-24T01:43:14.342Z,978.43
2018-07-24T01:44:14.349Z,978
2018-07-24T01:45:14.379Z,978.15
2018-07-24T01:46:14.345Z,978.15
2018-07-24T01:47:14.365Z,978.23
2018-07-24T01:48:14.364Z,978.23
2018-07-24T01:49:14.343Z,978.15
2018-07-24T01:50:14.664Z,978.25
2018-07-24T01:51:14.316Z,978.43
2018-07-24T01:52:14.366Z,978.53
2018-07-24T01:53:14.340Z,978.52
2018-07-24T01:54:14.317Z,978.48
2018-07-24T01:55:14.353Z,978.6
2018-07-24T01:56:14.366Z,978.25
2018-07-24T01:57:14.337Z,978.36
2018-07-24T01:58:14.342Z,978.73
2018-07-24T01:59:14.372Z,978.36
2018-07-24T02:00:14.370Z,978.35
2018-07-24T02:01:14.357Z,978.52
2018-07-24T02:02:14.353Z,978.63
2018-07-24T02:03:14.369Z,978.31
2018-07-24T02:04:14.344Z,978.66
2018-07-24T02:05:14.348Z,978.54
2018-07-24T02:06:14.360Z,978.43
2018-07-24T02:07:14.437Z,978.72
2018-07-24T02:08:14.389Z,978.63
2018-07-24T02:09:14.377Z,978.55
2018-07-24T02:10:14.381Z,978.73
2018-07-24T02:11:14.380Z,978.63
2018-07-24T02:12:14.396Z,978.62
2018-07-24T02:13:14.476Z,978.74
2018-07-24T02:14:14.458Z,978.68
2018-07-24T02:15:14.347Z,978.82
2018-07-24T02:16:14.380Z,978.81
2018-07-24T02:17:14.434Z,979.13
2018-07-24T02:18:14.371Z,978.53
2018-07-24T02:19:14.444Z,978.81
2018-07-24T02:20:14.385Z,978.87
2018-07-24T02:21:14.415Z,978.88
2018-07-24T02:22:14.401Z,978.59
2018-07-24T02:23:14.391Z,978.84
2018-07-24T02:24:14.435Z,979.05
2018-07-24T02:25:14.395Z,978.83
2018-07-24T02:26:14.378Z,978.84
2018-07-24T02:27:14.422Z,979.04
2018-07-24T02:28:14.413Z,979.03
2018-07-24T02:29:14.421Z,978.83
2018-07-24T02:30:14.462Z,978.87
2018-07-24T02:31:14.439Z,978.96
2018-07-24T02:32:15.106Z,978.64
2018-07-24T02:33:14.418Z,978.95
2018-07-24T02:34:14.423Z,978.99
2018-07-24T02:35:14.463Z,978.93
2018-07-24T02:36:14.426Z,979.11
2018-07-24T02:37:14.474Z,978.96
2018-07-24T02:38:14.456Z,979.28
2018-07-24T02:39:14.443Z,979.24
2018-07-24T02:40:14.435Z,979.19
2018-07-24T02:41:14.431Z,979.17
2018-07-24T02:42:14.420Z,979.51
2018-07-24T02:43:14.433Z,979.02
2018-07-24T02:44:14.453Z,979.31
2018-07-24T02:45:14.441Z,979.62
2018-07-24T02:46:14.416Z,979.53
2018-07-24T02:47:14.458Z,979.24
2018-07-24T02:48:14.450Z,979.42
2018-07-24T02:49:14.437Z,979.47
2018-07-24T02:50:14.429Z,979.46
2018-07-24T02:51:14.465Z,979.45
2018-07-24T02:52:14.454Z,979.34
2018-07-24T02:53:14.458Z,979.54
2018-07-24T02:54:14.482Z,979.58
2018-07-24T02:55:14.457Z,979.4
2018-07-24T02:56:14.432Z,979.4
2018-07-24T02:57:14.445Z,979.3
2018-07-24T02:58:14.444Z,979.64
2018-07-24T02:59:14.466Z,979.6
2018-07-24T03:00:14.472Z,979.52
2018-07-24T03:01:14.487Z,979.8
2018-07-24T03:02:14.457Z,979.97
2018-07-24T03:03:14.441Z,979.63
2018-07-24T03:04:14.454Z,979.89
2018-07-24T03:05:15.423Z,980.1
2018-07-24T03:06:14.480Z,979.79
2018-07-24T03:07:14.471Z,979.92
2018-07-24T03:08:14.494Z,979.54
2018-07-24T03:09:14.447Z,979.68
2018-07-24T03:10:14.536Z,979.77
2018-07-24T03:11:14.538Z,979.87
2018-07-24T03:12:14.523Z,980.07
2018-07-24T03:13:14.476Z,979.67
2018-07-24T03:14:14.516Z,980.07
2018-07-24T03:15:14.519Z,979.86
2018-07-24T03:16:14.522Z,979.95
2018-07-24T03:17:14.482Z,979.96
2018-07-24T03:18:14.493Z,979.68
2018-07-24T03:19:14.547Z,980.12
2018-07-24T03:20:14.547Z,980.06
2018-07-24T03:21:14.491Z,979.86
2018-07-24T03:22:14.506Z,979.87
2018-07-24T03:23:14.473Z,979.96
2018-07-24T03:24:14.513Z,979.79
2018-07-24T03:25:14.583Z,979.98
2018-07-24T03:26:14.562Z,980.44
2018-07-24T03:27:14.491Z,980.16
2018-07-24T03:28:14.576Z,980.17
2018-07-24T03:29:14.515Z,980.23
2018-07-24T03:30:14.487Z,980.43
2018-07-24T03:31:14.528Z,980.24
2018-07-24T03:32:14.566Z,980.52
2018-07-24T03:33:14.536Z,980.56
2018-07-24T03:34:14.552Z,980.17
2018-07-24T03:35:14.553Z,980.5
2018-07-24T03:36:14.538Z,980.19
2018-07-24T03:37:14.638Z,980.31
2018-07-24T03:38:14.566Z,980.58
2018-07-24T03:39:14.545Z,980.3
2018-07-24T03:40:14.553Z,980.56
2018-07-24T03:41:14.520Z,980.64
2018-07-24T03:42:14.548Z,980.38
2018-07-24T03:43:14.834Z,980.33
2018-07-24T03:44:14.532Z,980.66
2018-07-24T03:45:14.584Z,980.64
2018-07-24T03:46:14.536Z,980.45
2018-07-24T03:47:14.592Z,980.77
2018-07-24T03:48:14.559Z,980.62
2018-07-24T03:49:14.569Z,980.48
2018-07-24T03:50:14.578Z,980.44
2018-07-24T03:51:14.547Z,980.61
2018-07-24T03:52:14.593Z,980.88
2018-07-24T03:53:14.596Z,980.8
2018-07-24T03:54:14.564Z,980.79
2018-07-24T03:55:14.606Z,980.77
2018-07-24T03:56:14.583Z,980.9
2018-07-24T03:57:14.587Z,980.74
2018-07-24T03:58:14.565Z,980.87
2018-07-24T03:59:14.572Z,980.59
2018-07-24T04:00:14.622Z,980.91
2018-07-24T04:01:14.583Z,980.8
2018-07-24T04:02:14.624Z,980.91
2018-07-24T04:03:14.555Z,980.75
2018-07-24T04:04:14.587Z,980.82
2018-07-24T04:05:14.641Z,981.26
2018-07-24T04:06:14.590Z,980.85
2018-07-24T04:07:14.591Z,981.03
2018-07-24T04:08:14.614Z,981.37
2018-07-24T04:09:14.599Z,981.17
2018-07-24T04:10:14.611Z,980.79
2018-07-24T04:11:14.624Z,981.1
2018-07-24T04:12:14.891Z,981.25
2018-07-24T04:13:14.591Z,981.01
2018-07-24T04:14:14.601Z,981.01
2018-07-24T04:15:14.604Z,981.13
2018-07-24T04:16:14.591Z,980.93
2018-07-24T04:17:14.584Z,980.93
2018-07-24T04:19:34.531Z,981.31
2018-07-24T04:20:34.539Z,981.22
2018-07-24T04:21:34.519Z,981.21
2018-07-24T04:22:34.559Z,981.5
2018-07-24T04:23:34.522Z,981.32
2018-07-24T04:24:34.509Z,981.37
2018-07-24T04:25:34.546Z,981.25
2018-07-24T04:26:34.523Z,981.26
2018-07-24T04:27:34.492Z,981.46
2018-07-24T04:28:34.524Z,981.3
2018-07-24T04:29:34.523Z,981.38
2018-07-24T04:30:34.525Z,981.39
2018-07-24T04:31:34.579Z,981.26
2018-07-24T04:32:34.554Z,981.42
2018-07-24T04:33:34.551Z,981.7
2018-07-24T04:34:34.551Z,981.68
2018-07-24T04:35:34.533Z,981.22
2018-07-24T04:36:34.542Z,981.52
2018-07-24T04:37:34.552Z,981.27
2018-07-24T04:38:34.546Z,981.1
2018-07-24T04:39:34.528Z,981.82
2018-07-24T04:40:34.538Z,981.42
2018-07-24T04:41:34.520Z,981.46
2018-07-24T04:42:34.609Z,981.41
2018-07-24T04:43:34.599Z,981.32
2018-07-24T04:44:34.538Z,981.42
2018-07-24T04:45:34.575Z,981.53
2018-07-24T04:46:34.579Z,981.41
2018-07-24T04:47:34.573Z,981.6
2018-07-24T04:48:34.610Z,981.41
2018-07-24T04:49:34.595Z,981.41
2018-07-24T04:50:34.547Z,981.33
2018-07-24T04:51:34.615Z,981.33
2018-07-24T04:56:05.732Z,981.43
2018-07-24T04:57:05.661Z,981.86
2018-07-24T04:58:05.681Z,981.86
2018-07-24T04:59:05.677Z,981.58
2018-07-24T05:00:05.680Z,981.76
2018-07-24T05:01:05.668Z,981.51
2018-07-24T05:02:05.699Z,981.83
2018-07-24T05:03:05.732Z,981.47
2018-07-24T05:04:05.710Z,981.47
2018-07-24T05:05:05.714Z,981.87
2018-07-24T05:06:05.725Z,981.16
2018-07-24T05:07:05.670Z,981.66
2018-07-24T05:08:05.671Z,981.92
2018-07-24T05:09:05.760Z,981.64
2018-07-24T05:10:05.718Z,981.62
2018-07-24T05:11:05.702Z,981.27
2018-07-24T05:12:05.699Z,981.56
2018-07-24T05:13:05.706Z,981.65
2018-07-24T05:14:05.716Z,981.45
2018-07-24T05:15:05.752Z,981.35
2018-07-24T05:16:05.693Z,981.74
2018-07-24T05:17:05.697Z,981.63
2018-07-24T05:18:05.706Z,981.65
2018-07-24T05:19:05.742Z,981.55
2018-07-24T05:20:05.748Z,981.25
2018-07-24T05:21:05.694Z,981.43
2018-07-24T05:22:05.696Z,981.49
2018-07-24T05:23:05.740Z,981.68
2018-07-24T05:24:05.685Z,981.52
2018-07-24T05:25:05.773Z,981.6
2018-07-24T05:26:05.758Z,981.61
2018-07-24T05:27:05.776Z,981.42
2018-07-24T05:28:05.727Z,981.61
2018-07-24T05:29:05.775Z,981.43
2018-07-24T05:30:05.816Z,981.44
2018-07-24T05:31:05.750Z,981.34
2018-07-24T05:32:05.705Z,981.44
2018-07-24T05:33:05.775Z,981.78
2018-07-24T05:34:05.809Z,981.67
2018-07-24T05:35:05.749Z,981.49
2018-07-24T05:36:05.744Z,981.29
2018-07-24T05:37:05.764Z,981.57
2018-07-24T05:38:05.732Z,981.45
2018-07-24T05:39:05.740Z,981.63
2018-07-24T05:40:05.808Z,981.35
2018-07-24T05:41:05.744Z,981.68
2018-07-24T05:45:34.748Z,981.69
2018-07-24T05:46:34.749Z,981.53
2018-07-24T05:47:34.756Z,981.64
2018-07-24T05:48:34.788Z,981.74
2018-07-24T05:49:34.816Z,981.54
2018-07-24T05:50:34.796Z,981.54
2018-07-24T05:51:34.761Z,981.46
2018-07-24T05:52:34.798Z,981.75
2018-07-24T05:53:34.728Z,981.64
2018-07-24T05:54:34.758Z,981.58
2018-07-24T05:55:34.765Z,981.61
2018-07-24T05:56:34.769Z,981.64
2018-07-24T05:57:34.830Z,981.78
2018-07-24T05:58:34.759Z,981.49
2018-07-24T05:59:34.738Z,981.68
2018-07-24T06:00:34.790Z,981.63
2018-07-24T06:01:34.799Z,981.52
2018-07-24T06:02:34.755Z,981.36
2018-07-24T06:03:34.764Z,981.6
2018-07-24T06:04:34.786Z,981.8
2018-07-24T06:05:34.782Z,981.48
2018-07-24T06:06:34.759Z,981.5
2018-07-24T06:07:34.789Z,981.47
2018-07-24T06:08:34.778Z,981.75
2018-07-24T06:09:34.774Z,981.57
2018-07-24T06:10:34.740Z,981.36
2018-07-24T06:11:34.783Z,981.55
2018-07-24T06:12:34.789Z,981.39
2018-07-24T06:13:34.829Z,981.4
2018-07-24T06:14:34.805Z,981.59
2018-07-24T06:15:34.804Z,981.48
2018-07-24T06:16:34.815Z,981.56
2018-07-24T06:17:34.904Z,981.38
2018-07-24T06:18:34.810Z,981.78
2018-07-24T06:19:34.868Z,981.45
2018-07-24T06:20:34.804Z,981.17
2018-07-24T06:21:34.816Z,981.17
2018-07-24T06:22:34.801Z,981.27
2018-07-24T06:23:34.853Z,981.48
2018-07-24T06:24:34.777Z,981.3
2018-07-24T06:25:34.776Z,981.36
2018-07-24T06:26:34.820Z,981.46
2018-07-24T06:27:34.821Z,981.84
2018-07-24T06:28:34.791Z,981.27
2018-07-24T06:29:34.915Z,981.61
2018-07-24T06:30:34.832Z,981.44
2018-07-24T06:31:34.845Z,981.44
2018-07-24T06:32:34.795Z,981.26
2018-07-24T06:33:34.829Z,981.36
2018-07-24T06:34:34.813Z,981.36
2018-07-24T06:35:34.808Z,981.17
2018-07-24T06:36:34.814Z,981.16
2018-07-24T06:37:34.796Z,981.37
2018-07-24T06:38:34.800Z,981.26
2018-07-24T06:39:34.917Z,981.12
2018-07-24T06:40:34.807Z,981.23
2018-07-24T06:41:34.837Z,981.28
2018-07-24T06:42:34.849Z,981.44
2018-07-24T06:43:34.890Z,980.98
2018-07-24T06:44:34.847Z,981.33
2018-07-24T06:45:34.849Z,981.04
2018-07-24T06:46:34.841Z,981.24
2018-07-24T06:47:34.839Z,981.02
2018-07-24T06:48:34.861Z,981.16
2018-07-24T06:49:34.850Z,981.22
2018-07-24T06:50:34.875Z,980.79
2018-07-24T06:51:34.918Z,980.98
2018-07-24T06:52:34.851Z,981.26
2018-07-24T06:53:34.849Z,981.13
2018-07-24T06:54:34.837Z,981.06
2018-07-24T06:55:34.837Z,981.03
2018-07-24T06:56:34.958Z,980.94
2018-07-24T06:57:36.489Z,980.68
2018-07-24T06:58:34.891Z,980.72
2018-07-24T06:59:34.856Z,980.6
2018-07-24T07:00:34.839Z,980.58
2018-07-24T07:01:34.872Z,980.82
2018-07-24T07:02:34.853Z,980.78
2018-07-24T07:03:34.951Z,980.32
2018-07-24T07:04:34.859Z,980.38
2018-07-24T07:05:34.905Z,980.57
2018-07-24T07:06:34.950Z,980.37
2018-07-24T07:07:34.937Z,980.7
2018-07-24T07:08:34.854Z,980.63
2018-07-24T07:13:51.890Z,980.3
2018-07-24T07:14:05.697Z,980.56
2018-07-24T07:15:05.742Z,980.39
2018-07-24T07:16:05.760Z,980.41
2018-07-24T07:17:05.718Z,980
2018-07-24T07:18:05.776Z,980.86
2018-07-24T07:19:05.773Z,980.4
2018-07-24T07:20:05.807Z,980.51
2018-07-24T07:21:05.726Z,980.3
2018-07-24T07:22:05.731Z,980.32
2018-07-24T07:23:05.795Z,980.63
2018-07-24T07:24:05.736Z,980.33
2018-07-24T07:25:05.756Z,980.1
2018-07-24T07:26:05.737Z,980.01
2018-07-24T07:27:05.747Z,979.82
2018-07-24T07:28:06.373Z,980.12
2018-07-24T07:29:05.771Z,980.22
2018-07-24T07:30:05.787Z,980.12
2018-07-24T07:31:05.743Z,979.84
2018-07-24T07:32:05.849Z,979.98
2018-07-24T07:33:05.764Z,979.98
2018-07-24T07:34:05.759Z,980.01
2018-07-24T07:35:05.799Z,980
2018-07-24T07:36:05.778Z,979.85
2018-07-24T07:37:05.778Z,980.08
2018-07-24T07:38:05.761Z,979.72
2018-07-24T07:39:05.843Z,979.72
2018-07-24T07:40:05.823Z,979.65
2018-07-24T07:41:05.752Z,979.42
2018-07-24T07:42:05.756Z,979.91
2018-07-24T07:43:05.738Z,979.3
2018-07-24T07:44:05.824Z,979.69
2018-07-24T07:45:05.782Z,979.38
2018-07-24T07:46:05.773Z,979.45
2018-07-24T07:47:07.382Z,979.63
2018-07-24T07:48:05.783Z,979.16
2018-07-24T07:49:05.801Z,979.63
2018-07-24T07:50:05.805Z,979.43
2018-07-24T07:51:05.778Z,979.34
2018-07-24T07:52:05.841Z,979.33
2018-07-24T07:53:05.798Z,979.36
2018-07-24T07:54:05.819Z,979.4
2018-07-24T07:55:05.811Z,979.27
2018-07-24T07:56:05.798Z,979.2
2018-07-24T07:57:05.779Z,979.3
2018-07-24T07:58:05.811Z,979.21
2018-07-24T07:59:05.772Z,979.12
2018-07-24T08:00:05.868Z,979.39
2018-07-24T08:01:06.178Z,978.84
2018-07-24T08:02:05.778Z,978.96
2018-07-24T08:03:05.844Z,978.85
2018-07-24T08:04:05.786Z,978.87
2018-07-24T08:05:05.838Z,979.07
2018-07-24T08:06:05.834Z,978.87
2018-07-24T08:07:05.824Z,978.93
2018-07-24T08:08:06.566Z,978.95
2018-07-24T08:09:05.800Z,978.85
2018-07-24T08:10:05.872Z,978.65
2018-07-24T08:11:05.839Z,978.64
2018-07-24T08:12:05.871Z,978.83
2018-07-24T08:13:05.855Z,978.76
2018-07-24T08:14:05.829Z,978.66
2018-07-24T08:15:05.839Z,978.47
2018-07-24T08:16:05.812Z,978.77
2018-07-24T08:17:05.841Z,978.85
2018-07-24T08:18:05.864Z,978.62
2018-07-24T08:19:05.885Z,978.65
2018-07-24T08:20:05.863Z,979.14
2018-07-24T08:21:05.871Z,978.53
2018-07-24T08:22:05.885Z,978.43
2018-07-24T08:23:05.851Z,978.38
2018-07-24T08:24:05.882Z,978.46
2018-07-24T08:25:05.868Z,978.65
2018-07-24T08:26:05.864Z,978.59
2018-07-24T08:27:05.920Z,978.49
2018-07-24T08:28:05.851Z,978.4
2018-07-24T08:29:05.859Z,978.31
2018-07-24T08:30:05.892Z,978.2
2018-07-24T08:31:05.830Z,978.23
2018-07-24T08:32:05.884Z,978.3
2018-07-24T08:33:05.909Z,978.09
2018-07-24T08:34:05.875Z,977.93
2018-07-24T08:35:05.890Z,978.2
2018-07-24T08:36:05.915Z,978.44
2018-07-24T08:37:05.869Z,978
2018-07-24T08:38:05.851Z,977.9
2018-07-24T08:39:06.110Z,978.47
2018-07-24T08:40:05.916Z,978.18
2018-07-24T08:41:05.898Z,978.03
2018-07-24T08:42:05.867Z,978
2018-07-24T08:43:05.875Z,978.04
2018-07-24T08:44:05.894Z,977.87
2018-07-24T08:45:05.893Z,977.86
2018-07-24T08:46:05.929Z,977.87
2018-07-24T08:47:05.906Z,977.85
2018-07-24T08:48:05.930Z,977.85
2018-07-24T08:49:05.970Z,977.92
2018-07-24T08:50:05.949Z,978.03
2018-07-24T08:51:05.894Z,977.86
2018-07-24T08:52:05.893Z,977.73
2018-07-24T08:53:06.002Z,977.65
2018-07-24T08:54:06.070Z,977.45
2018-07-24T08:55:06.336Z,977.72
2018-07-24T08:56:05.928Z,977.94
2018-07-24T08:57:05.912Z,977.76
2018-07-24T08:58:05.939Z,977.63
2018-07-24T08:59:05.900Z,977.53
2018-07-24T09:00:05.896Z,977.64
2018-07-24T09:01:05.938Z,977.52
2018-07-24T09:02:05.934Z,977.73
2018-07-24T09:03:05.916Z,977.32
2018-07-24T09:04:05.943Z,977.49
2018-07-24T09:05:06.254Z,977.54
2018-07-24T09:06:05.902Z,977.25
2018-07-24T09:07:05.932Z,977.24
2018-07-24T09:08:05.946Z,977.28
2018-07-24T09:09:05.967Z,977.43
2018-07-24T09:10:06.009Z,977.23
2018-07-24T09:11:05.927Z,977.53
2018-07-24T09:12:05.922Z,977.03
2018-07-24T09:13:05.949Z,977.23
2018-07-24T09:14:06.010Z,977.23
2018-07-24T09:15:06.011Z,977.1
2018-07-24T09:16:05.978Z,977.11
2018-07-24T09:17:05.936Z,977.38
2018-07-24T09:18:05.995Z,976.8
2018-07-24T09:19:05.979Z,976.68
2018-07-24T09:20:05.998Z,976.95
2018-07-24T09:21:05.959Z,976.98
2018-07-24T09:22:05.967Z,976.66
2018-07-24T09:23:05.959Z,976.96
2018-07-24T09:24:05.969Z,976.64
2018-07-24T09:25:06.027Z,976.83
2018-07-24T09:26:06.011Z,976.95
2018-07-24T09:30:36.129Z,976.69
2018-07-24T09:31:36.068Z,976.67
2018-07-24T09:32:36.092Z,976.37
2018-07-24T09:33:36.164Z,976.64
2018-07-24T09:34:36.087Z,976.34
2018-07-24T09:35:36.101Z,976.66
2018-07-24T09:36:36.132Z,976.66
2018-07-24T09:37:36.065Z,976.53
2018-07-24T09:38:36.062Z,976.33
2018-07-24T09:39:36.117Z,976.33
2018-07-24T09:40:36.198Z,976.63
2018-07-24T09:41:36.220Z,976.62
2018-07-24T09:42:36.088Z,976.41
2018-07-24T09:43:36.091Z,976.33
2018-07-24T09:44:36.132Z,976.34
2018-07-24T09:45:36.082Z,976.13
2018-07-24T09:46:36.154Z,976.12
2018-07-24T09:47:36.116Z,976.02
2018-07-24T09:48:36.075Z,976.27
2018-07-24T09:49:36.130Z,975.99
2018-07-24T09:50:36.095Z,976.19
2018-07-24T09:51:36.086Z,976.05
2018-07-24T09:52:36.128Z,976.19
2018-07-24T09:53:36.688Z,975.84
2018-07-24T09:54:36.100Z,976.03
2018-07-24T09:55:36.140Z,975.91
2018-07-24T09:56:36.107Z,975.71
2018-07-24T09:57:36.132Z,975.97
2018-07-24T09:58:36.107Z,975.78
2018-07-24T09:59:36.130Z,975.8
2018-07-24T10:00:36.110Z,975.79
2018-07-24T10:01:36.153Z,975.81
2018-07-24T10:02:36.144Z,975.69
2018-07-24T10:03:36.098Z,975.95
2018-07-24T10:04:36.135Z,975.68
2018-07-24T10:05:36.149Z,975.78
2018-07-24T10:06:36.142Z,975.83
2018-07-24T10:07:36.119Z,975.61
2018-07-24T10:08:36.128Z,975.5
2018-07-24T10:09:36.199Z,975.4
2018-07-24T10:10:36.138Z,975.9
2018-07-24T10:11:36.150Z,975.68
2018-07-24T10:12:36.206Z,975.61
2018-07-24T10:13:36.168Z,975.43
2018-07-24T10:14:36.164Z,975.55
2018-07-24T10:15:36.152Z,975.43
2018-07-24T10:16:36.267Z,975.63
2018-07-24T10:17:36.150Z,975.71
2018-07-24T10:18:36.165Z,975.71
2018-07-24T10:19:36.205Z,975.53
2018-07-24T10:20:36.190Z,975.53
2018-07-24T10:21:36.144Z,975.41
2018-07-24T10:22:36.140Z,975.65
2018-07-24T10:23:36.130Z,975.45
2018-07-24T10:24:36.196Z,975.46
2018-07-24T10:25:36.136Z,975.38
2018-07-24T10:26:36.183Z,975.38
2018-07-24T10:27:36.179Z,975.26
2018-07-24T10:28:36.211Z,975.23
2018-07-24T10:29:36.195Z,975.14
2018-07-24T10:30:36.194Z,975.03
2018-07-24T10:35:05.617Z,975.39
2018-07-24T10:36:05.560Z,975.28
2018-07-24T10:37:05.601Z,975.2
2018-07-24T10:38:05.606Z,975.06
2018-07-24T10:39:05.567Z,975.14
2018-07-24T10:40:05.654Z,975.31
2018-07-24T10:41:05.586Z,974.9
2018-07-24T10:42:05.658Z,974.89
2018-07-24T10:43:05.618Z,974.8
2018-07-24T10:44:05.615Z,974.81
2018-07-24T10:45:05.605Z,974.95
2018-07-24T10:46:05.583Z,975.14
2018-07-24T10:47:05.637Z,974.88
2018-07-24T10:48:05.637Z,974.86
2018-07-24T10:49:05.593Z,974.92
2018-07-24T10:50:05.640Z,974.82
2018-07-24T10:51:05.615Z,974.52
2018-07-24T10:52:05.635Z,974.67
2018-07-24T10:53:05.570Z,974.45
2018-07-24T10:54:05.640Z,974.65
2018-07-24T10:55:05.617Z,974.52
2018-07-24T10:56:05.580Z,974.51
2018-07-24T10:57:05.599Z,974.37
2018-07-24T10:58:05.623Z,974.48
2018-07-24T10:59:05.629Z,974.36
2018-07-24T11:00:05.706Z,974.63
2018-07-24T11:01:05.643Z,974.45
2018-07-24T11:02:05.722Z,974.47
2018-07-24T11:03:05.644Z,974.42
2018-07-24T11:04:05.674Z,974.22
2018-07-24T11:05:05.648Z,974.23
2018-07-24T11:06:05.643Z,973.93
2018-07-24T11:07:05.607Z,974.21
2018-07-24T11:08:05.623Z,973.99
2018-07-24T11:09:05.681Z,974.32
2018-07-24T11:10:05.970Z,974.19
2018-07-24T11:11:05.659Z,974.13
2018-07-24T11:12:05.686Z,974.32
2018-07-24T11:13:05.625Z,974.01
2018-07-24T11:14:05.641Z,974.3
2018-07-24T11:15:05.679Z,974.26
2018-07-24T11:16:05.638Z,974.35
2018-07-24T11:17:05.671Z,974.18
2018-07-24T11:18:05.651Z,974.14
2018-07-24T11:19:05.656Z,974.24
2018-07-24T11:20:05.754Z,974.24
2018-07-24T11:21:05.655Z,974.21
2018-07-24T11:22:05.729Z,974.32
2018-07-24T11:27:23.810Z,974.14
2018-07-24T11:27:37.666Z,974.12
2018-07-24T11:28:37.733Z,974.2
2018-07-24T11:29:37.684Z,974.2
2018-07-24T11:30:37.690Z,973.91
2018-07-24T11:31:37.628Z,974.12
2018-07-24T11:32:37.648Z,974.2
2018-07-24T11:33:37.657Z,973.92
2018-07-24T11:34:37.696Z,973.98
2018-07-24T11:35:37.758Z,973.82
2018-07-24T11:36:37.691Z,974.3
2018-07-24T11:37:37.635Z,973.73
2018-07-24T11:38:37.742Z,974.21
2018-07-24T11:39:37.713Z,973.81
2018-07-24T11:40:37.692Z,973.88
2018-07-24T11:41:37.735Z,974.08
2018-07-24T11:42:37.740Z,974.13
2018-07-24T11:43:37.703Z,973.9
2018-07-24T11:44:37.707Z,973.9
2018-07-24T11:45:37.715Z,974.02
2018-07-24T11:46:37.685Z,973.83
2018-07-24T11:47:37.693Z,973.33
2018-07-24T11:48:37.730Z,973.52
2018-07-24T11:49:37.702Z,973.72
2018-07-24T11:50:37.675Z,973.7
2018-07-24T11:51:37.760Z,973.48
2018-07-24T11:52:37.663Z,973.49
2018-07-24T11:53:37.721Z,973.67
2018-07-24T11:54:37.707Z,973.23
2018-07-24T11:55:37.683Z,973.38
2018-07-24T11:56:37.728Z,973.52
2018-07-24T11:57:37.754Z,973.15
2018-07-24T11:58:37.729Z,973.46
2018-07-24T11:59:37.709Z,973.19
2018-07-24T12:00:37.716Z,973.24
2018-07-24T12:01:37.762Z,973.38
2018-07-24T12:02:37.698Z,973.18
2018-07-24T12:03:37.819Z,973.16
2018-07-24T12:06:45.156Z,972.84
2018-07-24T12:06:57.712Z,972.94
2018-07-24T12:07:57.674Z,972.81
2018-07-24T12:08:57.658Z,972.88
2018-07-24T12:09:57.669Z,973
2018-07-24T12:10:57.729Z,972.81
2018-07-24T12:11:57.682Z,973.01
2018-07-24T12:12:57.719Z,973.01
2018-07-24T12:13:57.705Z,972.95
2018-07-24T12:14:57.853Z,973.01
2018-07-24T12:15:57.740Z,973.21
2018-07-24T12:16:57.684Z,973.01
2018-07-24T12:17:57.693Z,973.08
2018-07-24T12:18:57.688Z,972.97
2018-07-24T12:19:57.766Z,972.75
2018-07-24T12:20:57.729Z,973.24
2018-07-24T12:21:57.756Z,972.83
2018-07-24T12:22:57.720Z,972.91
2018-07-24T12:23:57.667Z,972.75
2018-07-24T12:24:57.670Z,972.72
2018-07-24T12:25:57.694Z,972.56
2018-07-24T12:26:57.703Z,972.5
2018-07-24T12:27:57.708Z,972.63
2018-07-24T12:28:57.699Z,972.53
2018-07-24T12:29:57.738Z,972.51
2018-07-24T12:30:57.714Z,972.6
2018-07-24T12:31:57.752Z,972.64
2018-07-24T12:32:57.718Z,972.6
2018-07-24T12:33:57.717Z,972.4
2018-07-24T12:34:57.735Z,972.21
2018-07-24T12:35:57.816Z,972.46
2018-07-24T12:36:57.763Z,972.38
2018-07-24T12:37:57.732Z,972.36
2018-07-24T12:38:57.742Z,972.09
2018-07-24T12:39:57.736Z,972.03
2018-07-24T12:40:57.782Z,972.09
2018-07-24T12:42:32.497Z,972.42
2018-07-24T12:42:57.830Z,972.23
2018-07-24T12:43:57.741Z,972.36
2018-07-24T12:44:57.743Z,972.04
2018-07-24T12:45:57.807Z,972.23
2018-07-24T12:46:57.768Z,972.24
2018-07-24T12:47:57.753Z,972.08
2018-07-24T12:48:57.741Z,971.99
2018-07-24T12:49:57.757Z,972.09
2018-07-24T12:50:57.719Z,972.15
2018-07-24T12:51:57.748Z,972.01
2018-07-24T12:52:57.764Z,972.03
2018-07-24T12:53:57.740Z,971.62
2018-07-24T12:54:57.745Z,972.16
2018-07-24T12:55:57.767Z,971.91
2018-07-24T12:56:57.761Z,971.84